createdAt,value
2019-03-13T00:00:11.667Z,62.10
2019-03-13T00:06:42.789Z,60.80
2019-03-13T00:10:07.437Z,62.20
2019-03-13T00:16:38.602Z,62.20
2019-03-13T00:23:09.984Z,62.70
2019-03-13T00:29:41.144Z,62.80
2019-03-13T00:36:12.216Z,65.60
2019-03-13T00:39:36.866Z,66.20
2019-03-13T00:46:07.824Z,69.70
2019-03-13T00:52:38.971Z,69.40
2019-03-13T00:59:09.299Z,69.40
2019-03-13T01:05:44.532Z,69.00
2019-03-13T01:12:15.461Z,68.10
2019-03-13T01:15:40.309Z,68.80
2019-03-13T01:22:11.361Z,82.50
2019-03-13T01:24:41.287Z,91.30
2019-03-13T01:28:05.733Z,93.10
2019-03-13T01:34:41.069Z,99.90
2019-03-13T01:41:11.776Z,99.90
2019-03-13T01:47:42.352Z,99.90
2019-03-13T01:51:06.720Z,99.90
2019-03-13T01:57:37.433Z,99.90
2019-03-13T02:01:01.705Z,99.90
2019-03-13T02:07:32.872Z,99.90
2019-03-13T02:10:57.199Z,99.90
2019-03-13T02:17:28.286Z,99.90
2019-03-13T02:20:52.849Z,99.90
2019-03-13T02:27:23.656Z,99.90
2019-03-13T02:33:54.128Z,99.90
2019-03-13T02:40:24.954Z,99.90
2019-03-13T02:46:55.505Z,99.90
2019-03-13T02:50:20.175Z,99.90
2019-03-13T02:56:50.943Z,99.90
2019-03-13T03:00:15.538Z,99.90
2019-03-13T03:06:47.275Z,99.90
2019-03-13T03:13:18.261Z,99.90
2019-03-13T03:16:42.785Z,99.90
2019-03-13T03:23:13.744Z,99.90
2019-03-13T03:26:30.604Z,99.90
2019-03-13T03:29:00.732Z,99.90
2019-03-13T03:35:31.207Z,99.90
2019-03-13T03:42:01.321Z,99.90
2019-03-13T03:48:31.341Z,99.90
2019-03-13T03:51:55.740Z,99.90
2019-03-13T03:58:29.034Z,99.90
2019-03-13T04:01:13.515Z,99.90
2019-03-13T04:11:43.971Z,99.90
2019-03-13T04:18:13.799Z,99.90
2019-03-13T04:21:37.693Z,99.90
2019-03-13T04:28:07.816Z,99.90
2019-03-13T04:34:37.952Z,99.90
2019-03-13T04:41:08.417Z,99.90
2019-03-13T04:47:39.638Z,99.90
2019-03-13T04:54:10.704Z,99.90
2019-03-13T05:00:41.315Z,99.90
2019-03-13T05:07:12.210Z,99.90
2019-03-13T05:13:43.454Z,99.90
2019-03-13T05:17:07.620Z,99.90
2019-03-13T05:23:38.251Z,99.90
2019-03-13T05:27:02.464Z,99.90
2019-03-13T05:29:32.554Z,99.90
2019-03-13T05:36:03.751Z,99.90
2019-03-13T05:42:34.710Z,99.90
2019-03-13T05:49:05.891Z,99.90
2019-03-13T05:55:36.895Z,99.90
2019-03-13T06:02:08.407Z,99.90
2019-03-13T06:08:39.002Z,99.90
2019-03-13T06:12:03.369Z,99.90
2019-03-13T06:18:34.198Z,99.90
2019-03-13T06:25:05.538Z,99.90
2019-03-13T06:28:19.697Z,99.90
2019-03-13T06:30:49.595Z,99.90
2019-03-13T06:37:20.135Z,99.90
2019-03-13T06:40:44.470Z,99.90
2019-03-13T06:47:14.536Z,99.90
2019-03-13T06:50:38.723Z,99.90
2019-03-13T06:57:08.874Z,99.90
2019-03-13T07:00:33.384Z,99.90
2019-03-13T07:07:11.144Z,99.90
2019-03-13T07:10:35.486Z,99.90
2019-03-13T07:17:08.203Z,99.90
2019-03-13T07:23:43.080Z,99.90
2019-03-13T07:27:07.532Z,99.90
2019-03-13T07:33:42.338Z,99.90
2019-03-13T07:36:14.416Z,99.90
2019-03-13T07:42:47.284Z,99.90
2019-03-13T07:49:22.485Z,99.90
2019-03-13T07:56:10.050Z,99.90
2019-03-13T08:02:42.878Z,99.90
2019-03-13T08:09:27.638Z,99.90
2019-03-13T08:12:52.107Z,99.90
2019-03-13T08:19:26.616Z,99.90
2019-03-13T08:22:51.179Z,99.90
2019-03-13T08:29:26.410Z,99.90
2019-03-13T08:36:01.401Z,99.90
2019-03-13T08:42:36.844Z,99.90
2019-03-13T08:46:01.472Z,99.90
2019-03-13T08:52:36.759Z,99.90
2019-03-13T08:59:09.243Z,99.90
2019-03-13T09:01:43.900Z,99.90
2019-03-13T09:04:22.927Z,99.90
2019-03-13T09:10:54.731Z,99.90
2019-03-13T09:17:29.319Z,99.90
2019-03-13T09:20:53.511Z,99.90
2019-03-13T09:27:37.171Z,99.90
2019-03-13T09:34:21.089Z,99.90
2019-03-13T09:36:52.748Z,99.90
2019-03-13T09:43:29.441Z,99.90
2019-03-13T09:50:07.811Z,99.60
2019-03-13T09:56:43.324Z,96.60
2019-03-13T10:03:15.843Z,96.50
2019-03-13T10:06:40.128Z,98.40
2019-03-13T10:13:28.340Z,97.00
2019-03-13T10:16:52.612Z,94.20
2019-03-13T10:23:28.098Z,94.90
2019-03-13T10:26:05.778Z,96.80
2019-03-13T10:29:30.272Z,98.80
2019-03-13T10:36:11.819Z,99.90
2019-03-13T10:38:49.455Z,99.90
2019-03-13T10:45:28.245Z,97.50
2019-03-13T10:52:12.831Z,95.10
2019-03-13T10:59:01.231Z,94.00
2019-03-13T11:02:25.645Z,95.30
2019-03-13T11:09:03.841Z,89.90
2019-03-13T11:15:52.034Z,87.60
2019-03-13T11:18:57.529Z,80.70
2019-03-13T11:25:32.923Z,91.50
2019-03-13T11:32:05.249Z,91.20
2019-03-13T11:38:41.300Z,98.40
2019-03-13T11:45:14.101Z,99.90
2019-03-13T11:51:52.500Z,99.90
2019-03-13T11:58:27.890Z,99.50
2019-03-13T12:05:02.958Z,93.10
2019-03-13T12:08:27.788Z,95.70
2019-03-13T12:15:00.726Z,97.40
2019-03-13T12:21:35.927Z,99.90
2019-03-13T12:28:08.059Z,99.90
2019-03-13T12:31:32.231Z,99.90
2019-03-13T12:38:07.394Z,99.90
2019-03-13T12:44:45.910Z,99.90
2019-03-13T12:48:16.614Z,99.90
2019-03-13T12:54:50.165Z,99.90
2019-03-13T12:57:21.618Z,99.90
2019-03-13T13:00:46.313Z,99.90
2019-03-13T13:07:31.039Z,99.90
2019-03-13T13:10:05.641Z,99.90
2019-03-13T13:16:54.878Z,99.90
2019-03-13T13:23:25.900Z,99.90
2019-03-13T13:29:57.560Z,99.90
2019-03-13T13:33:22.134Z,99.90
2019-03-13T13:39:53.008Z,99.90
2019-03-13T13:46:25.869Z,99.90
2019-03-13T13:49:59.179Z,99.90
2019-03-13T13:56:22.179Z,99.90
2019-03-13T14:02:53.147Z,99.90
2019-03-13T14:09:24.414Z,99.90
2019-03-13T14:15:54.825Z,99.90
2019-03-13T14:22:25.599Z,99.10
2019-03-13T14:25:50.223Z,95.20
2019-03-13T14:32:21.328Z,99.90
2019-03-13T14:35:46.433Z,91.90
2019-03-13T14:42:17.630Z,89.80
2019-03-13T14:48:48.538Z,90.90
2019-03-13T14:52:13.261Z,95.40
2019-03-13T14:58:44.018Z,99.90
2019-03-13T15:05:14.670Z,99.90
2019-03-13T15:11:45.813Z,99.90
2019-03-13T15:18:16.863Z,99.90
2019-03-13T15:21:41.449Z,99.90
2019-03-13T15:28:12.641Z,99.90
2019-03-13T15:31:37.156Z,99.90
2019-03-13T15:38:08.353Z,99.90
2019-03-13T15:44:40.932Z,99.90
2019-03-13T15:51:11.809Z,99.90
2019-03-13T15:57:42.521Z,99.90
2019-03-13T16:01:06.757Z,99.90
2019-03-13T16:07:37.975Z,99.90
2019-03-13T16:14:09.217Z,99.90
2019-03-13T16:17:33.750Z,99.90
2019-03-13T16:24:04.795Z,99.90
2019-03-13T16:30:46.626Z,99.90
2019-03-13T16:37:18.832Z,99.90
2019-03-13T16:43:50.079Z,99.90
2019-03-13T16:46:19.984Z,99.90
2019-03-13T16:52:51.547Z,99.90
2019-03-13T16:59:22.011Z,99.90
2019-03-13T17:02:46.830Z,99.90
2019-03-13T17:09:18.211Z,99.90
2019-03-13T17:12:44.731Z,99.90
2019-03-13T17:19:16.264Z,99.90
2019-03-13T17:22:43.306Z,99.90
2019-03-13T17:29:13.666Z,99.90
2019-03-13T17:32:38.575Z,99.90
2019-03-13T17:39:11.951Z,99.90
2019-03-13T17:45:43.002Z,99.90
2019-03-13T17:52:13.847Z,99.90
2019-03-13T17:58:44.818Z,99.90
2019-03-13T18:02:09.690Z,99.90
2019-03-13T18:08:40.621Z,99.90
2019-03-13T18:12:05.034Z,99.90
2019-03-13T18:18:44.948Z,99.90
2019-03-13T18:25:18.217Z,99.90
2019-03-13T18:28:42.887Z,99.90
2019-03-13T18:35:14.820Z,99.90
2019-03-13T18:41:45.694Z,99.90
2019-03-13T18:48:17.096Z,99.90
2019-03-13T18:54:48.054Z,99.90
2019-03-13T18:58:14.166Z,99.90
2019-03-13T19:04:44.735Z,99.90
2019-03-13T19:08:09.211Z,99.90
2019-03-13T19:14:39.955Z,99.90
2019-03-13T19:18:04.414Z,99.90
2019-03-13T19:24:35.603Z,99.90
2019-03-13T19:28:00.534Z,99.90
2019-03-13T19:34:31.523Z,99.90
2019-03-13T19:37:02.738Z,99.90
2019-03-13T19:43:33.746Z,99.90
2019-03-13T19:50:05.090Z,99.90
2019-03-13T19:56:35.313Z,99.90
2019-03-13T20:03:11.830Z,99.90
2019-03-13T20:09:42.514Z,99.90
2019-03-13T20:13:06.953Z,99.90
2019-03-13T20:19:38.246Z,99.90
2019-03-13T20:26:09.602Z,99.90
2019-03-13T20:29:33.799Z,99.90
2019-03-13T20:36:04.955Z,99.90
2019-03-13T20:42:36.371Z,99.90
2019-03-13T20:46:00.462Z,99.90
2019-03-13T20:52:31.347Z,99.90
2019-03-13T20:59:02.043Z,99.90
2019-03-13T21:05:32.851Z,99.90
2019-03-13T21:12:03.351Z,99.90
2019-03-13T21:18:33.847Z,99.90
2019-03-13T21:25:07.691Z,99.90
2019-03-13T21:28:15.142Z,99.90
2019-03-13T21:34:46.300Z,99.90
2019-03-13T21:38:13.167Z,99.90
2019-03-13T21:44:43.150Z,99.90
2019-03-13T21:51:13.755Z,99.90
2019-03-13T21:53:43.530Z,99.90
2019-03-13T22:00:25.493Z,99.90
2019-03-13T22:03:49.893Z,99.90
2019-03-13T22:10:21.865Z,99.90
2019-03-13T22:13:46.240Z,99.90
2019-03-13T22:20:17.562Z,99.90
2019-03-13T22:22:53.789Z,99.90
2019-03-13T22:29:24.613Z,99.90
2019-03-13T22:35:54.902Z,99.90
2019-03-13T22:39:19.435Z,99.90
2019-03-13T22:45:49.852Z,99.90
2019-03-13T22:49:14.127Z,99.90
2019-03-13T22:55:44.456Z,99.90
2019-03-13T23:02:18.524Z,99.90
2019-03-13T23:08:49.924Z,99.90
2019-03-13T23:15:21.034Z,99.90
2019-03-13T23:21:52.138Z,99.90
2019-03-13T23:25:16.958Z,99.90
2019-03-13T23:31:48.081Z,99.90
2019-03-13T23:35:12.185Z,99.90
2019-03-13T23:41:43.025Z,99.90
2019-03-13T23:48:14.701Z,99.90
2019-03-13T23:54:45.209Z,99.90
2019-03-13T23:57:15.321Z,99.90
